sensor_id;sensor_type;location;lat;lon;timestamp;pressure;altitude;pressure_sealevel;temperature;humidity
46690;BME280;32423;45.398;10.874;2023-03-25T00:01:31;100371.66;;;18.27;48.28
46690;BME280;32423;45.398;10.874;2023-03-25T00:04:21;100365.25;;;18.19;48.46
46690;BME280;32423;45.398;10.874;2023-03-25T00:07:16;100353.97;;;18.28;48.54
46690;BME280;32423;45.398;10.874;2023-03-25T00:10:08;100364.94;;;18.24;48.39
46690;BME280;32423;45.398;10.874;2023-03-25T00:13:01;100353.56;;;18.26;48.70
46690;BME280;32423;45.398;10.874;2023-03-25T00:15:53;100361.84;;;18.29;48.61
46690;BME280;32423;45.398;10.874;2023-03-25T00:18:46;100360.31;;;18.32;48.51
46690;BME280;32423;45.398;10.874;2023-03-25T00:21:38;100349.69;;;18.34;48.48
46690;BME280;32423;45.398;10.874;2023-03-25T00:24:30;100355.19;;;18.30;48.74
46690;BME280;32423;45.398;10.874;2023-03-25T00:27:21;100363.41;;;18.27;48.77
46690;BME280;32423;45.398;10.874;2023-03-25T00:30:13;100359.41;;;18.21;48.63
46690;BME280;32423;45.398;10.874;2023-03-25T00:33:05;100363.38;;;18.23;48.98
46690;BME280;32423;45.398;10.874;2023-03-25T00:35:54;100363.78;;;18.25;48.98
46690;BME280;32423;45.398;10.874;2023-03-25T00:38:47;100359.06;;;18.26;49.00
46690;BME280;32423;45.398;10.874;2023-03-25T00:41:39;100362.97;;;18.25;48.91
46690;BME280;32423;45.398;10.874;2023-03-25T00:44:28;100358.09;;;18.11;49.26
46690;BME280;32423;45.398;10.874;2023-03-25T00:47:20;100360.16;;;18.18;48.95
46690;BME280;32423;45.398;10.874;2023-03-25T00:50:12;100347.09;;;18.11;48.74
46690;BME280;32423;45.398;10.874;2023-03-25T00:53:04;100344.09;;;17.93;49.33
46690;BME280;32423;45.398;10.874;2023-03-25T00:55:56;100342.88;;;17.87;49.41
46690;BME280;32423;45.398;10.874;2023-03-25T00:58:46;100342.22;;;17.98;48.81
46690;BME280;32423;45.398;10.874;2023-03-25T01:01:38;100332.63;;;17.88;49.56
46690;BME280;32423;45.398;10.874;2023-03-25T01:04:30;100323.88;;;17.79;49.89
46690;BME280;32423;45.398;10.874;2023-03-25T01:07:22;100324.91;;;17.67;50.07
46690;BME280;32423;45.398;10.874;2023-03-25T01:10:14;100317.91;;;17.73;49.94
46690;BME280;32423;45.398;10.874;2023-03-25T01:13:06;100307.66;;;17.70;49.83
46690;BME280;32423;45.398;10.874;2023-03-25T01:15:58;100299.56;;;17.81;49.94
46690;BME280;32423;45.398;10.874;2023-03-25T01:18:50;100303.69;;;17.68;49.98
46690;BME280;32423;45.398;10.874;2023-03-25T01:21:44;100299.31;;;17.63;50.45
46690;BME280;32423;45.398;10.874;2023-03-25T01:24:36;100292.44;;;17.76;49.93
46690;BME280;32423;45.398;10.874;2023-03-25T01:27:26;100301.88;;;17.79;50.11
46690;BME280;32423;45.398;10.874;2023-03-25T01:30:19;100301.00;;;17.71;50.38
46690;BME280;32423;45.398;10.874;2023-03-25T01:33:11;100294.72;;;17.71;50.13
46690;BME280;32423;45.398;10.874;2023-03-25T01:36:03;100294.75;;;17.74;50.18
46690;BME280;32423;45.398;10.874;2023-03-25T01:38:55;100293.63;;;17.79;50.17
46690;BME280;32423;45.398;10.874;2023-03-25T01:41:47;100285.34;;;17.75;50.36
46690;BME280;32423;45.398;10.874;2023-03-25T01:47:31;100278.56;;;17.69;50.38
46690;BME280;32423;45.398;10.874;2023-03-25T01:50:23;100271.91;;;17.70;50.28
46690;BME280;32423;45.398;10.874;2023-03-25T01:53:17;100266.38;;;17.67;50.47
46690;BME280;32423;45.398;10.874;2023-03-25T01:56:09;100259.13;;;17.55;50.31
46690;BME280;32423;45.398;10.874;2023-03-25T01:59:02;100249.41;;;17.61;50.31
46690;BME280;32423;45.398;10.874;2023-03-25T02:01:53;100238.41;;;17.61;50.88
46690;BME280;32423;45.398;10.874;2023-03-25T02:07:48;100231.41;;;17.67;50.57
46690;BME280;32423;45.398;10.874;2023-03-25T02:10:40;100231.41;;;17.67;50.67
46690;BME280;32423;45.398;10.874;2023-03-25T02:13:32;100233.94;;;17.53;50.66
46690;BME280;32423;45.398;10.874;2023-03-25T02:16:28;100222.16;;;17.52;50.92
46690;BME280;32423;45.398;10.874;2023-03-25T02:19:39;100230.28;;;17.42;50.86
46690;BME280;32423;45.398;10.874;2023-03-25T02:25:49;100222.81;;;17.42;50.27
46690;BME280;32423;45.398;10.874;2023-03-25T02:28:51;100231.66;;;17.29;50.60
46690;BME280;32423;45.398;10.874;2023-03-25T02:32:00;100229.84;;;17.40;50.12
46690;BME280;32423;45.398;10.874;2023-03-25T02:38:06;100215.78;;;17.45;50.02
46690;BME280;32423;45.398;10.874;2023-03-25T02:41:19;100203.13;;;17.37;49.90
46690;BME280;32423;45.398;10.874;2023-03-25T02:44:17;100209.03;;;17.39;49.70
46690;BME280;32423;45.398;10.874;2023-03-25T02:47:09;100208.53;;;17.30;49.91
46690;BME280;32423;45.398;10.874;2023-03-25T02:50:07;100209.28;;;17.27;50.09
46690;BME280;32423;45.398;10.874;2023-03-25T02:53:01;100214.78;;;17.27;50.08
46690;BME280;32423;45.398;10.874;2023-03-25T02:55:54;100225.00;;;17.30;49.97
46690;BME280;32423;45.398;10.874;2023-03-25T02:58:47;100216.63;;;17.19;50.41
46690;BME280;32423;45.398;10.874;2023-03-25T03:01:41;100215.81;;;17.19;50.34
46690;BME280;32423;45.398;10.874;2023-03-25T03:04:42;100225.94;;;17.11;50.68
46690;BME280;32423;45.398;10.874;2023-03-25T03:07:34;100216.47;;;17.08;50.81
46690;BME280;32423;45.398;10.874;2023-03-25T03:10:34;100216.91;;;17.10;50.86
46690;BME280;32423;45.398;10.874;2023-03-25T03:13:44;100208.97;;;17.05;50.99
46690;BME280;32423;45.398;10.874;2023-03-25T03:16:52;100200.63;;;16.72;52.59
46690;BME280;32423;45.398;10.874;2023-03-25T03:19:58;100213.44;;;16.64;53.00
46690;BME280;32423;45.398;10.874;2023-03-25T03:22:59;100217.78;;;16.65;53.41
46690;BME280;32423;45.398;10.874;2023-03-25T03:25:54;100213.97;;;16.74;53.74
46690;BME280;32423;45.398;10.874;2023-03-25T03:28:54;100213.19;;;16.73;53.70
46690;BME280;32423;45.398;10.874;2023-03-25T03:31:50;100208.50;;;16.74;53.83
46690;BME280;32423;45.398;10.874;2023-03-25T03:34:49;100207.56;;;16.66;54.31
46690;BME280;32423;45.398;10.874;2023-03-25T03:37:42;100214.16;;;16.61;54.65
46690;BME280;32423;45.398;10.874;2023-03-25T03:40:35;100209.44;;;16.58;54.88
46690;BME280;32423;45.398;10.874;2023-03-25T03:43:32;100220.09;;;16.63;54.77
46690;BME280;32423;45.398;10.874;2023-03-25T03:46:24;100217.91;;;16.50;55.19
46690;BME280;32423;45.398;10.874;2023-03-25T03:49:16;100230.88;;;16.53;55.08
46690;BME280;32423;45.398;10.874;2023-03-25T03:52:19;100224.97;;;16.74;54.70
46690;BME280;32423;45.398;10.874;2023-03-25T03:55:16;100227.44;;;16.82;54.39
46690;BME280;32423;45.398;10.874;2023-03-25T03:58:13;100221.31;;;16.92;54.09
46690;BME280;32423;45.398;10.874;2023-03-25T04:01:16;100222.88;;;16.90;54.17
46690;BME280;32423;45.398;10.874;2023-03-25T04:04:22;100220.91;;;16.90;54.23
46690;BME280;32423;45.398;10.874;2023-03-25T04:07:15;100217.78;;;16.92;54.31
46690;BME280;32423;45.398;10.874;2023-03-25T04:10:17;100218.25;;;16.97;54.07
46690;BME280;32423;45.398;10.874;2023-03-25T04:13:10;100219.97;;;16.79;54.65
46690;BME280;32423;45.398;10.874;2023-03-25T04:16:04;100225.25;;;16.91;54.29
46690;BME280;32423;45.398;10.874;2023-03-25T04:18:56;100224.06;;;16.92;54.37
46690;BME280;32423;45.398;10.874;2023-03-25T04:21:48;100229.03;;;16.83;54.66
46690;BME280;32423;45.398;10.874;2023-03-25T04:24:40;100229.56;;;16.92;54.46
46690;BME280;32423;45.398;10.874;2023-03-25T04:27:32;100229.47;;;16.85;54.67
46690;BME280;32423;45.398;10.874;2023-03-25T04:30:25;100233.75;;;16.83;54.79
46690;BME280;32423;45.398;10.874;2023-03-25T04:33:18;100232.16;;;16.82;54.88
46690;BME280;32423;45.398;10.874;2023-03-25T04:36:10;100232.31;;;16.92;54.53
46690;BME280;32423;45.398;10.874;2023-03-25T04:39:02;100237.44;;;16.94;54.52
46690;BME280;32423;45.398;10.874;2023-03-25T04:41:54;100237.75;;;16.89;54.73
46690;BME280;32423;45.398;10.874;2023-03-25T04:44:43;100243.88;;;16.79;55.06
46690;BME280;32423;45.398;10.874;2023-03-25T04:47:35;100238.97;;;16.65;55.42
46690;BME280;32423;45.398;10.874;2023-03-25T04:50:27;100239.84;;;16.73;55.23
46690;BME280;32423;45.398;10.874;2023-03-25T04:53:20;100233.25;;;16.77;54.96
46690;BME280;32423;45.398;10.874;2023-03-25T04:56:12;100237.16;;;16.76;54.95
46690;BME280;32423;45.398;10.874;2023-03-25T04:59:06;100252.13;;;16.79;54.82
46690;BME280;32423;45.398;10.874;2023-03-25T05:01:58;100255.63;;;16.76;54.88
46690;BME280;32423;45.398;10.874;2023-03-25T05:04:50;100250.88;;;16.76;54.73
46690;BME280;32423;45.398;10.874;2023-03-25T05:07:42;100262.94;;;16.68;55.13
46690;BME280;32423;45.398;10.874;2023-03-25T05:10:34;100268.09;;;16.73;55.08
46690;BME280;32423;45.398;10.874;2023-03-25T05:13:26;100261.34;;;16.67;55.29
46690;BME280;32423;45.398;10.874;2023-03-25T05:16:19;100271.47;;;16.63;55.31
46690;BME280;32423;45.398;10.874;2023-03-25T05:19:11;100264.34;;;16.58;55.50
46690;BME280;32423;45.398;10.874;2023-03-25T05:22:03;100269.56;;;16.67;55.28
46690;BME280;32423;45.398;10.874;2023-03-25T05:24:55;100271.03;;;16.61;55.46
46690;BME280;32423;45.398;10.874;2023-03-25T05:27:47;100271.03;;;16.61;55.52
46690;BME280;32423;45.398;10.874;2023-03-25T05:30:39;100264.78;;;16.60;55.60
46690;BME280;32423;45.398;10.874;2023-03-25T05:33:29;100265.81;;;16.56;55.54
46690;BME280;32423;45.398;10.874;2023-03-25T05:36:21;100268.56;;;16.56;55.47
46690;BME280;32423;45.398;10.874;2023-03-25T05:39:13;100270.03;;;16.50;55.89
46690;BME280;32423;45.398;10.874;2023-03-25T05:42:05;100268.72;;;16.63;55.48
46690;BME280;32423;45.398;10.874;2023-03-25T05:44:57;100273.69;;;16.57;55.64
46690;BME280;32423;45.398;10.874;2023-03-25T05:47:49;100276.38;;;16.54;55.90
46690;BME280;32423;45.398;10.874;2023-03-25T05:50:41;100267.00;;;16.55;55.96
46690;BME280;32423;45.398;10.874;2023-03-25T05:53:31;100278.56;;;16.64;55.96
46690;BME280;32423;45.398;10.874;2023-03-25T05:56:23;100276.69;;;16.72;55.60
46690;BME280;32423;45.398;10.874;2023-03-25T05:59:15;100277.81;;;16.67;55.81
46690;BME280;32423;45.398;10.874;2023-03-25T06:02:04;100276.16;;;16.62;55.96
46690;BME280;32423;45.398;10.874;2023-03-25T06:04:54;100271.97;;;16.68;55.79
46690;BME280;32423;45.398;10.874;2023-03-25T06:07:46;100272.50;;;16.55;56.18
46690;BME280;32423;45.398;10.874;2023-03-25T06:10:38;100275.94;;;16.52;56.60
46690;BME280;32423;45.398;10.874;2023-03-25T06:13:30;100274.75;;;16.49;56.72
46690;BME280;32423;45.398;10.874;2023-03-25T06:16:23;100275.44;;;16.46;56.83
46690;BME280;32423;45.398;10.874;2023-03-25T06:19:16;100280.72;;;16.55;56.73
46690;BME280;32423;45.398;10.874;2023-03-25T06:22:08;100285.34;;;16.51;57.10
46690;BME280;32423;45.398;10.874;2023-03-25T06:25:00;100298.19;;;16.66;56.81
46690;BME280;32423;45.398;10.874;2023-03-25T06:27:52;100295.22;;;16.75;56.33
46690;BME280;32423;45.398;10.874;2023-03-25T06:30:44;100292.56;;;16.82;56.35
46690;BME280;32423;45.398;10.874;2023-03-25T06:33:36;100288.97;;;16.78;56.47
46690;BME280;32423;45.398;10.874;2023-03-25T06:36:28;100287.56;;;16.87;56.18
46690;BME280;32423;45.398;10.874;2023-03-25T06:39:20;100289.69;;;16.97;56.02
46690;BME280;32423;45.398;10.874;2023-03-25T06:42:13;100273.19;;;16.97;56.24
46690;BME280;32423;45.398;10.874;2023-03-25T06:45:23;100280.72;;;17.00;56.01
46690;BME280;32423;45.398;10.874;2023-03-25T06:48:40;100276.91;;;17.08;55.70
46690;BME280;32423;45.398;10.874;2023-03-25T06:51:32;100277.97;;;17.00;56.23
46690;BME280;32423;45.398;10.874;2023-03-25T06:54:24;100270.25;;;17.09;55.86
46690;BME280;32423;45.398;10.874;2023-03-25T06:57:16;100266.03;;;16.89;56.90
46690;BME280;32423;45.398;10.874;2023-03-25T07:00:06;100263.81;;;16.98;56.56
46690;BME280;32423;45.398;10.874;2023-03-25T07:02:58;100260.06;;;17.10;56.37
46690;BME280;32423;45.398;10.874;2023-03-25T07:05:50;100252.22;;;17.12;56.19
46690;BME280;32423;45.398;10.874;2023-03-25T07:08:41;100251.38;;;17.08;56.46
46690;BME280;32423;45.398;10.874;2023-03-25T07:11:33;100257.69;;;17.08;56.71
46690;BME280;32423;45.398;10.874;2023-03-25T07:14:25;100259.78;;;17.19;56.40
46690;BME280;32423;45.398;10.874;2023-03-25T07:17:18;100267.81;;;17.31;55.86
46690;BME280;32423;45.398;10.874;2023-03-25T07:20:07;100256.53;;;17.39;55.55
46690;BME280;32423;45.398;10.874;2023-03-25T07:22:59;100272.34;;;17.46;55.37
46690;BME280;32423;45.398;10.874;2023-03-25T07:25:51;100259.66;;;17.38;55.81
46690;BME280;32423;45.398;10.874;2023-03-25T07:28:43;100278.81;;;17.31;56.30
46690;BME280;32423;45.398;10.874;2023-03-25T07:31:36;100259.00;;;17.48;55.68
46690;BME280;32423;45.398;10.874;2023-03-25T07:34:28;100265.72;;;17.50;55.72
46690;BME280;32423;45.398;10.874;2023-03-25T07:37:21;100276.38;;;17.52;55.74
46690;BME280;32423;45.398;10.874;2023-03-25T07:40:10;100270.88;;;17.52;55.59
46690;BME280;32423;45.398;10.874;2023-03-25T07:43:02;100267.38;;;17.55;55.42
46690;BME280;32423;45.398;10.874;2023-03-25T07:46:13;100268.22;;;17.59;55.79
46690;BME280;32423;45.398;10.874;2023-03-25T07:49:05;100273.63;;;17.52;55.64
46690;BME280;32423;45.398;10.874;2023-03-25T07:51:57;100263.81;;;17.54;55.62
46690;BME280;32423;45.398;10.874;2023-03-25T07:54:50;100254.47;;;17.59;55.61
46690;BME280;32423;45.398;10.874;2023-03-25T07:57:42;100256.50;;;17.62;55.68
46690;BME280;32423;45.398;10.874;2023-03-25T08:00:34;100268.50;;;17.80;55.06
46690;BME280;32423;45.398;10.874;2023-03-25T08:03:26;100271.59;;;17.75;55.08
46690;BME280;32423;45.398;10.874;2023-03-25T08:06:18;100267.25;;;17.74;55.50
46690;BME280;32423;45.398;10.874;2023-03-25T08:09:10;100274.44;;;17.82;54.85
46690;BME280;32423;45.398;10.874;2023-03-25T08:11:59;100272.91;;;17.88;54.95
46690;BME280;32423;45.398;10.874;2023-03-25T08:14:51;100274.47;;;17.86;54.78
46690;BME280;32423;45.398;10.874;2023-03-25T08:17:43;100282.78;;;17.93;54.55
46690;BME280;32423;45.398;10.874;2023-03-25T08:20:33;100276.69;;;18.10;54.08
46690;BME280;32423;45.398;10.874;2023-03-25T08:23:22;100273.75;;;17.92;54.64
46690;BME280;32423;45.398;10.874;2023-03-25T08:26:12;100282.44;;;17.98;54.45
46690;BME280;32423;45.398;10.874;2023-03-25T08:29:01;100293.19;;;18.07;54.59
46690;BME280;32423;45.398;10.874;2023-03-25T08:31:52;100289.34;;;18.15;53.94
46690;BME280;32423;45.398;10.874;2023-03-25T08:34:42;100290.16;;;18.19;53.82
46690;BME280;32423;45.398;10.874;2023-03-25T08:37:34;100289.88;;;18.27;53.87
46690;BME280;32423;45.398;10.874;2023-03-25T08:40:26;100290.72;;;18.35;53.71
46690;BME280;32423;45.398;10.874;2023-03-25T08:43:18;100298.53;;;18.29;53.60
46690;BME280;32423;45.398;10.874;2023-03-25T08:46:10;100291.50;;;18.32;53.25
46690;BME280;32423;45.398;10.874;2023-03-25T08:49:00;100290.88;;;18.49;52.50
46690;BME280;32423;45.398;10.874;2023-03-25T08:51:49;100292.41;;;18.43;52.42
46690;BME280;32423;45.398;10.874;2023-03-25T08:54:39;100299.19;;;18.53;52.36
46690;BME280;32423;45.398;10.874;2023-03-25T08:57:30;100288.44;;;18.44;52.43
46690;BME280;32423;45.398;10.874;2023-03-25T09:00:22;100296.84;;;18.55;52.36
46690;BME280;32423;45.398;10.874;2023-03-25T09:03:12;100302.00;;;18.60;52.61
46690;BME280;32423;45.398;10.874;2023-03-25T09:06:07;100307.16;;;18.61;52.58
46690;BME280;32423;45.398;10.874;2023-03-25T09:08:58;100316.91;;;18.55;52.42
46690;BME280;32423;45.398;10.874;2023-03-25T09:11:50;100314.25;;;18.62;52.49
46690;BME280;32423;45.398;10.874;2023-03-25T09:14:42;100316.22;;;18.65;51.91
46690;BME280;32423;45.398;10.874;2023-03-25T09:17:31;100317.75;;;18.59;51.92
46690;BME280;32423;45.398;10.874;2023-03-25T09:20:21;100318.16;;;18.61;51.58
46690;BME280;32423;45.398;10.874;2023-03-25T09:23:08;100309.22;;;18.71;51.70
46690;BME280;32423;45.398;10.874;2023-03-25T09:26:03;100304.84;;;18.67;51.55
46690;BME280;32423;45.398;10.874;2023-03-25T09:28:55;100305.75;;;18.82;51.40
46690;BME280;32423;45.398;10.874;2023-03-25T09:31:44;100296.25;;;18.75;51.20
46690;BME280;32423;45.398;10.874;2023-03-25T09:34:36;100304.22;;;18.84;51.39
46690;BME280;32423;45.398;10.874;2023-03-25T09:37:29;100299.81;;;18.79;51.07
46690;BME280;32423;45.398;10.874;2023-03-25T09:40:20;100296.00;;;18.95;50.91
46690;BME280;32423;45.398;10.874;2023-03-25T09:46:08;100296.81;;;18.95;50.79
46690;BME280;32423;45.398;10.874;2023-03-25T09:49:00;100306.34;;;19.05;50.48
46690;BME280;32423;45.398;10.874;2023-03-25T09:51:53;100302.84;;;19.11;50.60
46690;BME280;32423;45.398;10.874;2023-03-25T09:54:46;100290.28;;;19.17;50.30
46690;BME280;32423;45.398;10.874;2023-03-25T09:57:40;100291.53;;;19.23;49.97
46690;BME280;32423;45.398;10.874;2023-03-25T10:00:32;100289.06;;;19.11;49.98
46690;BME280;32423;45.398;10.874;2023-03-25T10:03:22;100288.34;;;19.25;49.55
46690;BME280;32423;45.398;10.874;2023-03-25T10:06:13;100288.34;;;19.21;49.19
46690;BME280;32423;45.398;10.874;2023-03-25T10:09:11;100291.97;;;19.29;49.31
46690;BME280;32423;45.398;10.874;2023-03-25T10:12:09;100292.34;;;19.31;48.85
46690;BME280;32423;45.398;10.874;2023-03-25T10:24:12;100269.63;;;19.48;48.58
46690;BME280;32423;45.398;10.874;2023-03-25T10:27:10;100266.13;;;19.55;47.77
46690;BME280;32423;45.398;10.874;2023-03-25T10:32:54;100248.38;;;19.56;47.80
46690;BME280;32423;45.398;10.874;2023-03-25T10:35:45;100237.34;;;19.56;46.63
46690;BME280;32423;45.398;10.874;2023-03-25T10:38:35;100240.53;;;19.61;46.68
46690;BME280;32423;45.398;10.874;2023-03-25T10:41:28;100244.50;;;19.68;46.57
46690;BME280;32423;45.398;10.874;2023-03-25T10:44:21;100245.72;;;19.77;45.04
46690;BME280;32423;45.398;10.874;2023-03-25T10:47:15;100232.72;;;19.78;45.29
46690;BME280;32423;45.398;10.874;2023-03-25T10:50:17;100221.28;;;19.76;44.36
46690;BME280;32423;45.398;10.874;2023-03-25T10:53:11;100231.53;;;19.82;45.04
46690;BME280;32423;45.398;10.874;2023-03-25T10:56:15;100232.00;;;19.95;43.73
46690;BME280;32423;45.398;10.874;2023-03-25T10:59:10;100235.16;;;20.00;44.84
46690;BME280;32423;45.398;10.874;2023-03-25T11:02:10;100224.91;;;20.08;42.36
46690;BME280;32423;45.398;10.874;2023-03-25T11:05:04;100229.66;;;20.15;45.03
46690;BME280;32423;45.398;10.874;2023-03-25T11:08:01;100243.47;;;20.18;44.07
46690;BME280;32423;45.398;10.874;2023-03-25T11:10:53;100234.41;;;20.28;44.94
46690;BME280;32423;45.398;10.874;2023-03-25T11:13:48;100234.81;;;20.27;44.07
46690;BME280;32423;45.398;10.874;2023-03-25T11:17:06;100235.25;;;20.32;42.15
46690;BME280;32423;45.398;10.874;2023-03-25T11:19:56;100231.69;;;20.39;41.29
46690;BME280;32423;45.398;10.874;2023-03-25T11:22:49;100228.94;;;20.42;41.50
46690;BME280;32423;45.398;10.874;2023-03-25T11:25:42;100240.81;;;20.46;40.48
46690;BME280;32423;45.398;10.874;2023-03-25T11:28:40;100231.72;;;20.53;42.58
46690;BME280;32423;45.398;10.874;2023-03-25T11:31:36;100242.38;;;20.58;39.65
46690;BME280;32423;45.398;10.874;2023-03-25T11:34:26;100229.75;;;20.61;39.59
46690;BME280;32423;45.398;10.874;2023-03-25T11:37:24;100223.81;;;20.69;39.37
46690;BME280;32423;45.398;10.874;2023-03-25T11:40:17;100224.59;;;20.73;39.26
46690;BME280;32423;45.398;10.874;2023-03-25T11:43:09;100230.13;;;20.84;36.85
46690;BME280;32423;45.398;10.874;2023-03-25T11:46:14;100226.97;;;20.82;39.75
46690;BME280;32423;45.398;10.874;2023-03-25T11:49:10;100221.78;;;21.09;30.58
46690;BME280;32423;45.398;10.874;2023-03-25T11:52:08;100212.72;;;21.15;30.34
46690;BME280;32423;45.398;10.874;2023-03-25T11:55:03;100212.72;;;21.22;31.42
46690;BME280;32423;45.398;10.874;2023-03-25T11:57:55;100196.84;;;21.33;30.13
46690;BME280;32423;45.398;10.874;2023-03-25T12:00:49;100199.59;;;21.44;28.31
46690;BME280;32423;45.398;10.874;2023-03-25T12:03:39;100185.28;;;21.67;27.49
46690;BME280;32423;45.398;10.874;2023-03-25T12:06:31;100178.06;;;21.84;26.44
46690;BME280;32423;45.398;10.874;2023-03-25T12:09:21;100178.44;;;21.86;26.01
46690;BME280;32423;45.398;10.874;2023-03-25T12:15:15;100164.56;;;21.93;25.66
46690;BME280;32423;45.398;10.874;2023-03-25T12:18:29;100153.44;;;22.03;23.31
46690;BME280;32423;45.398;10.874;2023-03-25T12:24:37;100154.25;;;22.04;21.75
46690;BME280;32423;45.398;10.874;2023-03-25T12:30:44;100134.09;;;21.96;22.83
46690;BME280;32423;45.398;10.874;2023-03-25T12:36:51;100122.59;;;22.01;23.80
46690;BME280;32423;45.398;10.874;2023-03-25T12:40:08;100126.91;;;22.09;24.84
46690;BME280;32423;45.398;10.874;2023-03-25T12:43:03;100131.25;;;22.07;22.93
46690;BME280;32423;45.398;10.874;2023-03-25T12:46:12;100133.72;;;21.94;21.52
46690;BME280;32423;45.398;10.874;2023-03-25T12:52:32;100132.41;;;22.13;23.55
46690;BME280;32423;45.398;10.874;2023-03-25T12:55:43;100134.69;;;22.22;24.01
46690;BME280;32423;45.398;10.874;2023-03-25T13:07:59;100112.50;;;22.25;23.81
46690;BME280;32423;45.398;10.874;2023-03-25T13:10:59;100099.53;;;22.18;23.45
46690;BME280;32423;45.398;10.874;2023-03-25T13:13:52;100112.94;;;22.24;22.77
46690;BME280;32423;45.398;10.874;2023-03-25T13:16:47;100111.47;;;22.08;23.77
46690;BME280;32423;45.398;10.874;2023-03-25T13:19:39;100106.72;;;22.09;24.58
46690;BME280;32423;45.398;10.874;2023-03-25T13:22:32;100106.63;;;22.20;24.98
46690;BME280;32423;45.398;10.874;2023-03-25T13:25:30;100099.09;;;22.20;23.01
46690;BME280;32423;45.398;10.874;2023-03-25T13:28:23;100090.91;;;22.09;24.05
46690;BME280;32423;45.398;10.874;2023-03-25T13:31:20;100090.34;;;22.25;23.12
46690;BME280;32423;45.398;10.874;2023-03-25T13:34:18;100086.78;;;22.28;22.49
46690;BME280;32423;45.398;10.874;2023-03-25T13:37:11;100080.41;;;22.31;21.60
46690;BME280;32423;45.398;10.874;2023-03-25T13:43:17;100077.06;;;22.06;22.33
46690;BME280;32423;45.398;10.874;2023-03-25T13:46:15;100076.66;;;22.07;22.57
46690;BME280;32423;45.398;10.874;2023-03-25T13:49:17;100067.81;;;22.23;21.43
46690;BME280;32423;45.398;10.874;2023-03-25T13:52:14;100073.28;;;22.34;20.31
46690;BME280;32423;45.398;10.874;2023-03-25T13:55:04;100068.22;;;22.22;20.67
46690;BME280;32423;45.398;10.874;2023-03-25T14:01:18;100070.09;;;22.32;21.90
46690;BME280;32423;45.398;10.874;2023-03-25T14:13:12;100081.97;;;22.32;21.22
46690;BME280;32423;45.398;10.874;2023-03-25T14:16:06;100072.38;;;22.40;21.93
46690;BME280;32423;45.398;10.874;2023-03-25T14:19:05;100071.75;;;22.26;22.77
46690;BME280;32423;45.398;10.874;2023-03-25T14:21:57;100073.38;;;22.23;21.94
46690;BME280;32423;45.398;10.874;2023-03-25T14:24:49;100058.50;;;22.03;22.40
46690;BME280;32423;45.398;10.874;2023-03-25T14:27:45;100061.63;;;22.08;23.00
46690;BME280;32423;45.398;10.874;2023-03-25T14:30:38;100056.88;;;22.09;23.68
46690;BME280;32423;45.398;10.874;2023-03-25T14:33:31;100060.59;;;22.33;23.01
46690;BME280;32423;45.398;10.874;2023-03-25T14:45:31;100062.81;;;22.07;22.22
46690;BME280;32423;45.398;10.874;2023-03-25T14:48:23;100057.75;;;21.99;23.08
46690;BME280;32423;45.398;10.874;2023-03-25T14:51:23;100071.13;;;22.07;24.24
46690;BME280;32423;45.398;10.874;2023-03-25T14:54:31;100069.53;;;22.06;24.12
46690;BME280;32423;45.398;10.874;2023-03-25T14:57:21;100069.19;;;22.04;24.28
46690;BME280;32423;45.398;10.874;2023-03-25T15:00:15;100061.25;;;22.06;23.29
46690;BME280;32423;45.398;10.874;2023-03-25T15:03:11;100074.28;;;22.09;23.24
46690;BME280;32423;45.398;10.874;2023-03-25T15:06:05;100071.53;;;22.06;22.84
46690;BME280;32423;45.398;10.874;2023-03-25T15:09:00;100066.44;;;22.01;22.09
46690;BME280;32423;45.398;10.874;2023-03-25T15:11:55;100076.38;;;21.91;22.41
46690;BME280;32423;45.398;10.874;2023-03-25T15:14:43;100063.31;;;21.92;22.85
46690;BME280;32423;45.398;10.874;2023-03-25T15:17:47;100075.25;;;21.82;21.47
46690;BME280;32423;45.398;10.874;2023-03-25T15:20:39;100065.44;;;21.73;21.66
46690;BME280;32423;45.398;10.874;2023-03-25T15:26:30;100065.44;;;21.70;21.50
46690;BME280;32423;45.398;10.874;2023-03-25T15:35:37;100068.63;;;21.68;20.80
46690;BME280;32423;45.398;10.874;2023-03-25T15:41:28;100063.47;;;21.70;20.48
46690;BME280;32423;45.398;10.874;2023-03-25T15:53:26;100065.97;;;21.51;20.75
46690;BME280;32423;45.398;10.874;2023-03-25T15:56:20;100061.25;;;21.44;20.56
46690;BME280;32423;45.398;10.874;2023-03-25T15:59:23;100066.78;;;21.44;21.10
46690;BME280;32423;45.398;10.874;2023-03-25T16:02:37;100061.31;;;21.37;21.05
46690;BME280;32423;45.398;10.874;2023-03-25T16:05:28;100069.63;;;21.37;21.55
46690;BME280;32423;45.398;10.874;2023-03-25T16:08:24;100072.78;;;21.36;22.05
46690;BME280;32423;45.398;10.874;2023-03-25T16:11:22;100080.69;;;21.33;21.45
46690;BME280;32423;45.398;10.874;2023-03-25T16:14:16;100076.00;;;21.27;21.21
46690;BME280;32423;45.398;10.874;2023-03-25T16:17:09;100073.19;;;21.30;21.90
46690;BME280;32423;45.398;10.874;2023-03-25T16:20:02;100074.41;;;21.26;21.56
46690;BME280;32423;45.398;10.874;2023-03-25T16:22:55;100064.16;;;21.23;22.09
46690;BME280;32423;45.398;10.874;2023-03-25T16:25:48;100077.22;;;21.22;22.13
46690;BME280;32423;45.398;10.874;2023-03-25T16:28:40;100071.28;;;21.20;21.73
46690;BME280;32423;45.398;10.874;2023-03-25T16:31:35;100074.47;;;21.15;22.08
46690;BME280;32423;45.398;10.874;2023-03-25T16:34:32;100075.66;;;21.18;22.77
46690;BME280;32423;45.398;10.874;2023-03-25T16:37:24;100069.34;;;21.17;22.29